Time,TemperatureF,DewpointF,PressureIn,WindDirection,WindDirectionDegrees,WindSpeedMPH,WindSpeedGustMPH,Humidity,HourlyPrecipIn,Conditions,Clouds,dailyrainin,SoftwareType,DateUTC
2013-01-15 00:01:00,49.3,49.0,29.92,NE,45,0.0,-999.0,99,-99.99,,,0.00,Acu-Link.com,2013-01-15 05:01:00,
2013-01-15 00:16:00,49.3,49.0,29.92,NW,315,2.2,-999.0,99,-99.99,,,0.01,Acu-Link.com,2013-01-15 05:16:00,
2013-01-15 00:31:00,49.1,48.8,29.91,West,270,0.0,-999.0,99,-99.99,,,0.01,Acu-Link.com,2013-01-15 05:31:00,
2013-01-15 00:47:00,49.1,48.8,29.91,NW,315,0.0,-999.0,99,-99.99,,,0.01,Acu-Link.com,2013-01-15 05:47:00,
2013-01-15 01:02:00,49.3,49.0,29.90,NW,315,0.0,-999.0,99,-99.99,,,0.01,Acu-Link.com,2013-01-15 06:02:00,
2013-01-15 01:17:00,49.5,49.2,29.91,ENE,67,0.0,-999.0,99,-99.99,,,0.01,Acu-Link.com,2013-01-15 06:17:00,
2013-01-15 01:32:00,49.5,49.2,29.90,ESE,112,2.2,-999.0,99,-99.99,,,0.01,Acu-Link.com,2013-01-15 06:32:00,
2013-01-15 01:47:00,49.6,49.4,29.90,SSE,157,0.0,-999.0,99,-99.99,,,0.02,Acu-Link.com,2013-01-15 06:47:00,
2013-01-15 02:03:00,49.6,49.4,29.89,NNW,337,0.0,-999.0,99,-99.99,,,0.04,Acu-Link.com,2013-01-15 07:03:00,
2013-01-15 02:18:00,49.8,49.6,29.88,SSW,202,0.0,-999.0,99,-99.99,,,0.05,Acu-Link.com,2013-01-15 07:18:00,
2013-01-15 02:33:00,49.8,49.6,29.88,NE,45,2.2,-999.0,99,-99.99,,,0.07,Acu-Link.com,2013-01-15 07:33:00,
2013-01-15 02:48:00,50.2,49.9,29.88,SSE,157,1.6,-999.0,99,-99.99,,,0.08,Acu-Link.com,2013-01-15 07:48:00,
2013-01-15 03:03:00,50.4,50.1,29.87,West,270,0.0,-999.0,99,-99.99,,,0.09,Acu-Link.com,2013-01-15 08:03:00,
2013-01-15 03:19:00,50.5,50.3,29.86,WSW,247,0.0,-999.0,99,-99.99,,,0.09,Acu-Link.com,2013-01-15 08:19:00,
2013-01-15 03:34:00,50.9,50.6,29.86,West,270,2.2,-999.0,99,-99.99,,,0.09,Acu-Link.com,2013-01-15 08:34:00,
2013-01-15 03:49:00,52.0,51.7,29.86,SSE,157,2.2,-999.0,99,-99.99,,,0.09,Acu-Link.com,2013-01-15 08:49:00,
2013-01-15 04:13:00,52.9,52.6,29.86,West,270,4.3,-999.0,99,-99.99,,,0.09,Acu-Link.com,2013-01-15 09:13:00,
2013-01-15 04:29:00,56.7,56.4,29.85,West,270,2.7,-999.0,99,-99.99,,,0.09,Acu-Link.com,2013-01-15 09:29:00,
2013-01-15 04:44:00,57.4,57.1,29.85,SSW,202,3.8,-999.0,99,-99.99,,,0.11,Acu-Link.com,2013-01-15 09:44:00,
2013-01-15 04:59:00,57.4,57.1,29.86,SSW,202,2.2,-999.0,99,-99.99,,,0.15,Acu-Link.com,2013-01-15 09:59:00,
2013-01-15 05:14:00,57.4,57.1,29.88,ESE,112,3.1,-999.0,99,-99.99,,,0.22,Acu-Link.com,2013-01-15 10:14:00,
2013-01-15 05:29:00,57.4,57.1,29.88,South,180,0.0,-999.0,99,-99.99,,,0.44,Acu-Link.com,2013-01-15 10:29:00,
2013-01-15 05:44:00,57.2,56.9,29.87,NE,45,1.6,-999.0,99,-99.99,,,0.53,Acu-Link.com,2013-01-15 10:44:00,
2013-01-15 06:15:00,56.8,56.6,29.85,WNW,292,0.0,-999.0,99,-99.99,,,0.67,Acu-Link.com,2013-01-15 11:15:00,
2013-01-15 06:30:00,56.7,56.4,29.87,West,270,0.0,-999.0,99,-99.99,,,0.78,Acu-Link.com,2013-01-15 11:30:00,
2013-01-15 06:45:00,56.7,56.4,29.88,WSW,247,0.0,-999.0,99,-99.99,,,0.93,Acu-Link.com,2013-01-15 11:45:00,
2013-01-15 07:00:00,56.7,56.4,29.87,WNW,292,0.0,-999.0,99,-99.99,,,1.07,Acu-Link.com,2013-01-15 12:00:00,
2013-01-15 07:16:00,56.7,56.4,29.86,SW,225,0.0,-999.0,99,-99.99,,,1.23,Acu-Link.com,2013-01-15 12:16:00,
2013-01-15 07:31:00,56.8,56.6,29.87,West,270,0.0,-999.0,99,-99.99,,,1.29,Acu-Link.com,2013-01-15 12:31:00,
2013-01-15 07:46:00,56.8,56.6,29.87,West,270,0.0,-999.0,99,-99.99,,,1.33,Acu-Link.com,2013-01-15 12:46:00,
2013-01-15 08:01:00,56.8,56.6,29.87,WSW,247,0.0,-999.0,99,-99.99,,,1.38,Acu-Link.com,2013-01-15 13:01:00,
2013-01-15 08:17:00,56.8,56.6,29.87,SW,225,0.0,-999.0,99,-99.99,,,1.50,Acu-Link.com,2013-01-15 13:17:00,
2013-01-15 08:32:00,57.0,56.7,29.88,West,270,0.0,-999.0,99,-99.99,,,1.52,Acu-Link.com,2013-01-15 13:32:00,
2013-01-15 08:47:00,57.2,56.9,29.88,West,270,0.0,-999.0,99,-99.99,,,1.52,Acu-Link.com,2013-01-15 13:47:00,
2013-01-15 09:02:00,57.2,56.9,29.89,SW,225,1.6,-999.0,99,-99.99,,,1.54,Acu-Link.com,2013-01-15 14:02:00,
2013-01-15 09:17:00,57.4,57.1,29.89,ENE,67,0.0,-999.0,99,-99.99,,,1.58,Acu-Link.com,2013-01-15 14:17:00,
2013-01-15 09:33:00,57.4,57.1,29.90,NNW,337,0.0,-999.0,99,-99.99,,,1.59,Acu-Link.com,2013-01-15 14:33:00,
2013-01-15 09:48:00,57.4,57.1,29.89,NNW,337,0.0,-999.0,99,-99.99,,,1.61,Acu-Link.com,2013-01-15 14:48:00,
2013-01-15 10:03:00,57.4,57.1,29.89,ESE,112,0.0,-999.0,99,-99.99,,,1.64,Acu-Link.com,2013-01-15 15:03:00,
2013-01-15 10:18:00,57.7,57.5,29.89,NNW,337,0.0,-999.0,99,-99.99,,,1.70,Acu-Link.com,2013-01-15 15:18:00,
2013-01-15 10:33:00,57.6,57.3,29.89,NW,315,0.0,-999.0,99,-99.99,,,1.71,Acu-Link.com,2013-01-15 15:33:00,
2013-01-15 10:49:00,57.9,57.6,29.88,East,90,0.0,-999.0,99,-99.99,,,1.72,Acu-Link.com,2013-01-15 15:49:00,
2013-01-15 11:04:00,57.9,57.6,29.89,East,90,0.0,-999.0,99,-99.99,,,1.75,Acu-Link.com,2013-01-15 16:04:00,
2013-01-15 11:19:00,57.7,57.5,29.87,WNW,292,1.6,-999.0,99,-99.99,,,1.83,Acu-Link.com,2013-01-15 16:19:00,
2013-01-15 11:34:00,57.9,57.6,29.86,West,270,1.6,-999.0,99,-99.99,,,1.84,Acu-Link.com,2013-01-15 16:34:00,
2013-01-15 11:49:00,57.9,57.6,29.86,WSW,247,0.0,-999.0,99,-99.99,,,1.84,Acu-Link.com,2013-01-15 16:49:00,
2013-01-15 12:05:00,58.3,58.0,29.85,NE,45,0.0,-999.0,99,-99.99,,,1.87,Acu-Link.com,2013-01-15 17:05:00,
2013-01-15 12:20:00,58.5,58.2,29.84,ESE,112,0.0,-999.0,99,-99.99,,,1.89,Acu-Link.com,2013-01-15 17:20:00,
2013-01-15 12:35:00,59.0,58.7,29.83,SW,225,0.0,-999.0,99,-99.99,,,1.93,Acu-Link.com,2013-01-15 17:35:00,
2013-01-15 12:50:00,59.2,58.9,29.82,South,180,0.0,-999.0,99,-99.99,,,1.97,Acu-Link.com,2013-01-15 17:50:00,
2013-01-15 13:06:00,59.4,58.5,29.81,SSW,202,0.0,-999.0,97,-99.99,,,1.98,Acu-Link.com,2013-01-15 18:06:00,
2013-01-15 13:21:00,59.4,58.5,29.81,SW,225,0.0,-999.0,97,-99.99,,,1.98,Acu-Link.com,2013-01-15 18:21:00,
2013-01-15 13:36:00,59.2,58.3,29.79,SSE,157,0.0,-999.0,97,-99.99,,,2.02,Acu-Link.com,2013-01-15 18:36:00,
2013-01-15 13:51:00,59.2,58.0,29.79,South,180,0.0,-999.0,96,-99.99,,,2.03,Acu-Link.com,2013-01-15 18:51:00,
2013-01-15 14:06:00,59.2,58.0,29.79,South,180,1.6,-999.0,96,-99.99,,,2.04,Acu-Link.com,2013-01-15 19:06:00,
2013-01-15 14:22:00,58.8,57.7,29.78,SW,225,0.0,-999.0,96,-99.99,,,2.04,Acu-Link.com,2013-01-15 19:22:00,
2013-01-15 14:37:00,58.8,57.7,29.78,South,180,2.2,-999.0,96,-99.99,,,2.09,Acu-Link.com,2013-01-15 19:37:00,
2013-01-15 14:52:00,58.6,57.8,29.78,West,270,2.2,-999.0,97,-99.99,,,2.13,Acu-Link.com,2013-01-15 19:52:00,
2013-01-15 15:07:00,58.3,57.1,29.78,WSW,247,1.6,-999.0,96,-99.99,,,2.17,Acu-Link.com,2013-01-15 20:07:00,
2013-01-15 15:22:00,58.1,57.0,29.78,SSW,202,0.0,-999.0,96,-99.99,,,2.22,Acu-Link.com,2013-01-15 20:22:00,
2013-01-15 15:38:00,57.9,57.1,29.79,WSW,247,0.0,-999.0,97,-99.99,,,2.31,Acu-Link.com,2013-01-15 20:38:00,
2013-01-15 15:53:00,57.6,56.7,29.79,SW,225,0.0,-999.0,97,-99.99,,,2.31,Acu-Link.com,2013-01-15 20:53:00,
2013-01-15 16:08:00,57.6,56.7,29.78,SSW,202,0.0,-999.0,97,-99.99,,,2.33,Acu-Link.com,2013-01-15 21:08:00,
2013-01-15 16:23:00,57.6,56.7,29.79,SW,225,0.0,-999.0,97,-99.99,,,2.33,Acu-Link.com,2013-01-15 21:23:00,
2013-01-15 16:38:00,57.6,56.7,29.81,South,180,0.0,-999.0,97,-99.99,,,2.41,Acu-Link.com,2013-01-15 21:38:00,
2013-01-15 16:54:00,57.4,56.8,29.80,SSW,202,0.0,-999.0,98,-99.99,,,2.53,Acu-Link.com,2013-01-15 21:54:00,
2013-01-15 17:09:00,57.2,56.6,29.81,SW,225,0.0,-999.0,98,-99.99,,,2.54,Acu-Link.com,2013-01-15 22:09:00,
2013-01-15 17:24:00,57.2,56.6,29.81,West,270,0.0,-999.0,98,-99.99,,,2.56,Acu-Link.com,2013-01-15 22:24:00,
2013-01-15 17:39:00,57.2,56.9,29.81,West,270,0.0,-999.0,99,-99.99,,,2.57,Acu-Link.com,2013-01-15 22:39:00,
2013-01-15 17:55:00,57.4,57.1,29.81,WNW,292,2.2,-999.0,99,-99.99,,,2.57,Acu-Link.com,2013-01-15 22:55:00,
2013-01-15 18:10:00,57.4,57.1,29.81,West,270,0.0,-999.0,99,-99.99,,,2.67,Acu-Link.com,2013-01-15 23:10:00,
2013-01-15 18:25:00,57.7,57.5,29.81,SW,225,1.1,-999.0,99,-99.99,,,2.78,Acu-Link.com,2013-01-15 23:25:00,
2013-01-15 18:40:00,57.9,57.6,29.82,West,270,0.0,-999.0,99,-99.99,,,2.81,Acu-Link.com,2013-01-15 23:40:00,
2013-01-15 18:55:00,58.1,57.8,29.82,WNW,292,0.0,-999.0,99,-99.99,,,2.87,Acu-Link.com,2013-01-15 23:55:00,
2013-01-15 19:11:00,58.1,57.8,29.82,WSW,247,0.0,-999.0,99,-99.99,,,2.91,Acu-Link.com,2013-01-16 00:11:00,
2013-01-15 19:26:00,58.3,58.0,29.81,SSW,202,0.0,-999.0,99,-99.99,,,3.00,Acu-Link.com,2013-01-16 00:26:00,
2013-01-15 19:41:00,58.3,58.0,29.81,West,270,3.8,-999.0,99,-99.99,,,3.00,Acu-Link.com,2013-01-16 00:41:00,
2013-01-15 19:56:00,58.6,58.4,29.80,NW,315,0.0,-999.0,99,-99.99,,,3.01,Acu-Link.com,2013-01-16 00:56:00,
2013-01-15 20:11:00,59.2,58.9,29.80,NW,315,0.0,-999.0,99,-99.99,,,3.04,Acu-Link.com,2013-01-16 01:11:00,
2013-01-15 20:27:00,59.4,59.1,29.80,SW,225,0.0,-999.0,99,-99.99,,,3.15,Acu-Link.com,2013-01-16 01:27:00,
2013-01-15 20:42:00,59.5,59.3,29.80,NW,315,3.1,-999.0,99,-99.99,,,3.17,Acu-Link.com,2013-01-16 01:42:00,
2013-01-15 20:57:00,59.5,59.3,29.80,ESE,112,0.0,-999.0,99,-99.99,,,3.18,Acu-Link.com,2013-01-16 01:57:00,
2013-01-15 21:12:00,59.5,59.3,29.79,West,270,0.0,-999.0,99,-99.99,,,3.18,Acu-Link.com,2013-01-16 02:12:00,
2013-01-15 21:28:00,59.5,59.3,29.79,SSE,157,3.1,-999.0,99,-99.99,,,3.19,Acu-Link.com,2013-01-16 02:28:00,
2013-01-15 21:43:00,59.5,59.3,29.79,WSW,247,2.2,-999.0,99,-99.99,,,3.20,Acu-Link.com,2013-01-16 02:43:00,
2013-01-15 21:58:00,59.5,59.3,29.79,WSW,247,0.0,-999.0,99,-99.99,,,3.20,Acu-Link.com,2013-01-16 02:58:00,
2013-01-15 22:13:00,59.7,59.4,29.79,WNW,292,2.7,-999.0,99,-99.99,,,3.20,Acu-Link.com,2013-01-16 03:13:00,
2013-01-15 22:28:00,59.7,59.4,29.78,West,270,2.7,-999.0,99,-99.99,,,3.20,Acu-Link.com,2013-01-16 03:28:00,
2013-01-15 22:44:00,59.7,59.4,29.78,West,270,0.0,-999.0,99,-99.99,,,3.21,Acu-Link.com,2013-01-16 03:44:00,
2013-01-15 22:59:00,59.9,59.6,29.78,WNW,292,2.7,-999.0,99,-99.99,,,3.21,Acu-Link.com,2013-01-16 03:59:00,
2013-01-15 23:14:00,60.3,59.4,29.78,SW,225,1.1,-999.0,97,-99.99,,,3.21,Acu-Link.com,2013-01-16 04:14:00,
2013-01-15 23:29:00,59.7,58.9,29.77,West,270,2.2,-999.0,97,-99.99,,,3.21,Acu-Link.com,2013-01-16 04:29:00,
2013-01-15 23:44:00,59.9,59.3,29.77,West,270,1.6,-999.0,98,-99.99,,,3.22,Acu-Link.com,2013-01-16 04:44:00,